createdAt,value
2022-08-20T00:02:16.895Z,26.33
2022-08-20T00:04:45.003Z,26.28
2022-08-20T00:07:14.914Z,26.22
2022-08-20T00:09:43.984Z,26.17
2022-08-20T00:12:17.831Z,26.13
2022-08-20T00:14:46.289Z,26.09
2022-08-20T00:17:14.471Z,26.05
2022-08-20T00:19:42.536Z,25.99
2022-08-20T00:22:10.709Z,25.94
2022-08-20T00:24:38.778Z,25.89
2022-08-20T00:27:06.871Z,25.84
2022-08-20T00:29:35.125Z,25.79
2022-08-20T00:32:03.314Z,25.74
2022-08-20T00:34:31.366Z,25.68
2022-08-20T00:36:59.334Z,25.62
2022-08-20T00:39:28.222Z,25.55
2022-08-20T00:41:56.333Z,25.50
2022-08-20T00:44:24.372Z,25.45
2022-08-20T00:46:54.002Z,25.40
2022-08-20T00:49:33.145Z,25.36
2022-08-20T00:52:08.028Z,25.31
2022-08-20T00:54:47.310Z,25.28
2022-08-20T00:57:26.227Z,25.24
2022-08-20T00:59:54.239Z,25.20
2022-08-20T01:02:25.637Z,25.17
2022-08-20T01:04:55.519Z,25.13
2022-08-20T01:07:33.679Z,25.09
2022-08-20T01:10:07.001Z,25.04
2022-08-20T01:12:35.532Z,25.00
2022-08-20T01:15:07.468Z,24.98
2022-08-20T01:17:39.327Z,24.97
2022-08-20T01:20:16.010Z,24.94
2022-08-20T01:23:13.089Z,24.91
2022-08-20T01:25:53.104Z,24.86
2022-08-20T01:28:56.195Z,24.80
2022-08-20T01:31:31.571Z,24.73
2022-08-20T01:34:01.903Z,24.66
2022-08-20T01:36:44.281Z,24.61
2022-08-20T01:39:19.644Z,24.54
2022-08-20T01:42:09.277Z,24.48
2022-08-20T01:44:40.721Z,24.40
2022-08-20T01:47:21.897Z,24.30
2022-08-20T01:49:56.929Z,24.20
2022-08-20T01:52:30.223Z,24.10
2022-08-20T01:54:58.397Z,24.03
2022-08-20T01:57:27.156Z,23.96
2022-08-20T01:59:56.120Z,23.89
2022-08-20T02:02:26.008Z,23.82
2022-08-20T02:04:54.677Z,23.75
2022-08-20T02:07:23.916Z,23.67
2022-08-20T02:09:52.191Z,23.58
2022-08-20T02:12:20.319Z,23.49
2022-08-20T02:14:51.665Z,23.41
2022-08-20T02:17:23.039Z,23.36
2022-08-20T02:20:00.814Z,23.30
2022-08-20T02:22:37.913Z,23.25
2022-08-20T02:25:09.248Z,23.21
2022-08-20T02:27:41.302Z,23.15
2022-08-20T02:30:28.301Z,23.09
2022-08-20T02:32:58.277Z,23.02
2022-08-20T02:35:28.249Z,22.96
2022-08-20T02:37:56.841Z,22.90
2022-08-20T02:40:30.860Z,22.84
2022-08-20T02:43:00.890Z,22.78
2022-08-20T02:45:31.582Z,22.72
2022-08-20T02:47:59.829Z,22.69
2022-08-20T02:50:28.855Z,22.64
2022-08-20T02:52:56.864Z,22.60
2022-08-20T02:55:27.860Z,22.55
2022-08-20T02:57:58.559Z,22.52
2022-08-20T03:00:37.883Z,22.50
2022-08-20T03:03:11.691Z,22.49
2022-08-20T03:05:41.428Z,22.47
2022-08-20T03:08:12.437Z,22.47
2022-08-20T03:10:42.970Z,22.45
2022-08-20T03:13:12.694Z,22.44
2022-08-20T03:15:44.408Z,22.43
2022-08-20T03:18:13.516Z,22.44
2022-08-20T03:20:42.154Z,22.45
2022-08-20T03:23:10.314Z,22.46
2022-08-20T03:25:38.396Z,22.48
2022-08-20T03:28:06.748Z,22.48
2022-08-20T03:30:35.105Z,22.50
2022-08-20T03:33:03.448Z,22.52
2022-08-20T03:35:34.097Z,22.52
2022-08-20T03:38:07.388Z,22.54
2022-08-20T03:40:38.390Z,22.56
2022-08-20T03:43:09.635Z,22.57
2022-08-20T03:45:39.634Z,22.57
2022-08-20T03:48:09.460Z,22.57
2022-08-20T03:50:38.248Z,22.58
2022-08-20T03:53:06.420Z,22.57
2022-08-20T03:55:34.793Z,22.57
2022-08-20T03:58:07.314Z,22.55
2022-08-20T04:00:41.565Z,22.55
2022-08-20T04:03:10.785Z,22.54
2022-08-20T04:05:40.949Z,22.52
2022-08-20T04:08:12.512Z,22.51
2022-08-20T04:10:40.728Z,22.52
2022-08-20T04:13:09.421Z,22.51
2022-08-20T04:15:38.608Z,22.50
2022-08-20T04:18:09.304Z,22.49
2022-08-20T04:20:39.658Z,22.49
2022-08-20T04:23:08.793Z,22.47
2022-08-20T04:25:43.235Z,22.46
2022-08-20T04:28:15.359Z,22.45
2022-08-20T04:30:47.563Z,22.44
2022-08-20T04:33:34.158Z,22.43
2022-08-20T04:36:06.213Z,22.42
2022-08-20T04:38:47.757Z,22.41
2022-08-20T04:41:21.051Z,22.40
2022-08-20T04:43:54.375Z,22.38
2022-08-20T04:46:26.149Z,22.38
2022-08-20T04:48:55.821Z,22.38
2022-08-20T04:51:24.802Z,22.37
2022-08-20T04:53:55.182Z,22.39
2022-08-20T04:56:27.566Z,22.39
2022-08-20T04:58:58.680Z,22.40
2022-08-20T05:01:27.721Z,22.41
2022-08-20T05:03:57.341Z,22.43
2022-08-20T05:06:28.833Z,22.46
2022-08-20T05:08:58.921Z,22.49
2022-08-20T05:11:33.992Z,22.55
2022-08-20T05:14:09.695Z,22.60
2022-08-20T05:16:40.642Z,22.65
2022-08-20T05:19:13.507Z,22.69
2022-08-20T05:21:41.918Z,22.73
2022-08-20T05:24:12.534Z,22.76
2022-08-20T05:26:40.912Z,22.80
2022-08-20T05:29:09.185Z,22.85
2022-08-20T05:31:38.570Z,22.89
2022-08-20T05:34:11.174Z,22.94
2022-08-20T05:36:42.359Z,22.99
2022-08-20T05:39:11.456Z,23.03
2022-08-20T05:41:40.350Z,23.08
2022-08-20T05:44:13.507Z,23.12
2022-08-20T05:46:44.432Z,23.16
2022-08-20T05:49:16.466Z,23.19
2022-08-20T05:51:44.698Z,23.21
2022-08-20T05:54:13.563Z,23.21
2022-08-20T05:56:42.177Z,23.19
2022-08-20T05:59:12.687Z,23.18
2022-08-20T06:01:42.096Z,23.15
2022-08-20T06:04:28.418Z,23.11
2022-08-20T06:07:02.982Z,23.08
2022-08-20T06:09:32.681Z,23.06
2022-08-20T06:12:04.653Z,23.06
2022-08-20T06:14:33.177Z,23.04
2022-08-20T06:17:15.242Z,23.05
2022-08-20T06:19:46.959Z,23.05
2022-08-20T06:22:18.799Z,23.05
2022-08-20T06:24:55.289Z,23.07
2022-08-20T06:27:25.337Z,23.10
2022-08-20T06:29:54.221Z,23.12
2022-08-20T06:32:32.349Z,23.15
2022-08-20T06:35:06.902Z,23.21
2022-08-20T06:37:39.520Z,23.26
2022-08-20T06:40:12.181Z,23.33
2022-08-20T06:42:47.837Z,23.39
2022-08-20T06:45:24.682Z,23.44
2022-08-20T06:47:55.947Z,23.51
2022-08-20T06:50:27.357Z,23.56
2022-08-20T06:52:55.693Z,23.62
2022-08-20T06:55:24.120Z,23.66
2022-08-20T06:58:06.701Z,23.67
2022-08-20T07:00:44.590Z,23.71
2022-08-20T07:03:14.435Z,23.74
2022-08-20T07:05:44.720Z,23.77
2022-08-20T07:08:15.469Z,23.79
2022-08-20T07:10:43.726Z,23.82
2022-08-20T07:13:12.528Z,23.84
2022-08-20T07:15:40.523Z,23.87
2022-08-20T07:18:09.269Z,23.90
2022-08-20T07:20:40.684Z,23.93
2022-08-20T07:23:11.316Z,23.96
2022-08-20T07:25:41.894Z,23.98
2022-08-20T07:28:16.676Z,24.01
2022-08-20T07:31:13.181Z,24.06
2022-08-20T07:33:44.539Z,24.13
2022-08-20T07:36:13.981Z,24.21
2022-08-20T07:38:45.066Z,24.29
2022-08-20T07:41:15.264Z,24.39
2022-08-20T07:43:47.468Z,24.47
2022-08-20T07:46:17.877Z,24.55
2022-08-20T07:48:50.568Z,24.65
2022-08-20T07:51:20.748Z,24.75
2022-08-20T07:53:50.652Z,24.82
2022-08-20T07:56:22.683Z,24.88
2022-08-20T07:58:55.651Z,24.99
2022-08-20T08:01:30.480Z,25.09
2022-08-20T08:04:00.663Z,25.18
2022-08-20T08:06:31.575Z,25.23
2022-08-20T08:09:03.958Z,25.28
2022-08-20T08:11:35.178Z,25.38
2022-08-20T08:14:06.382Z,25.53
2022-08-20T08:16:35.919Z,25.67
2022-08-20T08:19:09.060Z,25.77
2022-08-20T08:21:37.340Z,25.86
2022-08-20T08:24:05.692Z,25.96
2022-08-20T08:26:33.686Z,26.06
2022-08-20T08:29:02.771Z,26.16
2022-08-20T08:31:30.808Z,26.24
2022-08-20T08:33:58.999Z,26.33
2022-08-20T08:36:27.494Z,26.43
2022-08-20T08:38:56.839Z,26.55
2022-08-20T08:41:24.805Z,26.71
2022-08-20T08:43:55.717Z,26.83
2022-08-20T08:46:28.668Z,26.91
2022-08-20T08:49:01.745Z,26.97
2022-08-20T08:51:42.369Z,27.00
2022-08-20T08:54:18.820Z,27.05
2022-08-20T08:56:49.659Z,27.05
2022-08-20T08:59:20.509Z,27.07
2022-08-20T09:01:57.455Z,27.21
2022-08-20T09:04:36.285Z,27.38
2022-08-20T09:07:07.925Z,27.56
2022-08-20T09:09:41.517Z,27.80
2022-08-20T09:12:12.627Z,28.12
2022-08-20T09:14:41.360Z,28.37
2022-08-20T09:17:09.532Z,28.65
2022-08-20T09:19:37.626Z,28.90
2022-08-20T09:22:15.848Z,29.02
2022-08-20T09:24:44.889Z,29.12
2022-08-20T09:27:13.469Z,29.23
2022-08-20T09:29:41.845Z,29.31
2022-08-20T09:32:19.107Z,29.31
2022-08-20T09:34:55.972Z,29.36
2022-08-20T09:37:26.427Z,29.29
2022-08-20T09:39:55.351Z,29.23
2022-08-20T09:42:28.249Z,29.29
2022-08-20T09:44:57.392Z,29.28
2022-08-20T09:47:25.910Z,29.35
2022-08-20T09:49:54.874Z,29.32
2022-08-20T09:52:40.171Z,29.17
2022-08-20T09:55:33.245Z,28.96
2022-08-20T09:58:12.849Z,28.82
2022-08-20T10:00:40.970Z,28.67
2022-08-20T10:03:09.087Z,28.55
2022-08-20T10:05:37.264Z,28.42
2022-08-20T10:08:07.622Z,28.27
2022-08-20T10:10:36.502Z,28.09
2022-08-20T10:13:04.989Z,27.91
2022-08-20T10:15:33.164Z,27.77
2022-08-20T10:18:05.697Z,27.62
2022-08-20T10:20:35.750Z,27.52
2022-08-20T10:23:05.281Z,27.43
2022-08-20T10:25:33.753Z,27.34
2022-08-20T10:28:01.893Z,27.32
2022-08-20T10:30:30.158Z,27.29
2022-08-20T10:32:58.263Z,27.28
2022-08-20T10:35:26.647Z,27.31
2022-08-20T10:37:54.774Z,27.30
2022-08-20T10:40:23.431Z,27.32
2022-08-20T10:42:52.045Z,27.32
2022-08-20T10:45:20.170Z,27.33
2022-08-20T10:47:48.305Z,27.31
2022-08-20T10:50:20.210Z,27.28
2022-08-20T10:52:48.516Z,27.27
2022-08-20T10:55:17.018Z,27.21
2022-08-20T10:57:45.784Z,27.14
2022-08-20T11:00:16.973Z,27.09
2022-08-20T11:02:45.148Z,27.02
2022-08-20T11:05:13.329Z,26.98
2022-08-20T11:07:50.569Z,26.97
2022-08-20T11:10:27.064Z,26.97
2022-08-20T11:12:55.447Z,26.96
2022-08-20T11:15:24.045Z,26.98
2022-08-20T11:17:52.475Z,27.00
2022-08-20T11:20:22.194Z,26.99
2022-08-20T11:22:50.272Z,26.99
2022-08-20T11:25:19.053Z,26.98
2022-08-20T11:27:49.567Z,26.95
2022-08-20T11:30:31.517Z,26.92
2022-08-20T11:33:01.164Z,26.91
2022-08-20T11:35:48.192Z,26.91
2022-08-20T11:38:18.290Z,26.92
2022-08-20T11:40:47.160Z,26.92
2022-08-20T11:43:16.884Z,26.91
2022-08-20T11:45:50.292Z,26.90
2022-08-20T11:48:18.608Z,26.90
2022-08-20T11:50:47.761Z,26.88
2022-08-20T11:53:16.387Z,26.86
2022-08-20T11:55:44.408Z,26.87
2022-08-20T11:58:12.528Z,26.91
2022-08-20T12:00:40.560Z,26.93
2022-08-20T12:03:09.958Z,26.98
2022-08-20T12:05:40.122Z,27.03
2022-08-20T12:08:08.659Z,27.11
2022-08-20T12:10:38.329Z,27.13
2022-08-20T12:13:07.629Z,27.14
2022-08-20T12:15:36.963Z,27.15
2022-08-20T12:18:08.908Z,27.13
2022-08-20T12:20:37.800Z,27.11
2022-08-20T12:23:05.991Z,27.09
2022-08-20T12:25:34.470Z,27.07
2022-08-20T12:28:04.469Z,27.06
2022-08-20T12:30:34.110Z,27.03
2022-08-20T12:33:02.211Z,26.99
2022-08-20T12:35:30.208Z,26.99
2022-08-20T12:38:03.931Z,27.00
2022-08-20T12:40:33.421Z,27.05
2022-08-20T12:43:03.070Z,27.08
2022-08-20T12:45:33.265Z,27.09
2022-08-20T12:48:07.318Z,27.08
2022-08-20T12:50:37.494Z,27.10
2022-08-20T12:53:06.416Z,27.15
2022-08-20T12:55:35.425Z,27.23
2022-08-20T12:58:05.093Z,27.29
2022-08-20T13:00:36.474Z,27.35
2022-08-20T13:03:06.649Z,27.42
2022-08-20T13:05:35.744Z,27.53
2022-08-20T13:08:11.297Z,27.66
2022-08-20T13:10:45.875Z,27.76
2022-08-20T13:13:17.521Z,27.82
2022-08-20T13:15:51.511Z,27.84
2022-08-20T13:18:20.334Z,27.85
2022-08-20T13:20:49.222Z,27.84
2022-08-20T13:23:17.801Z,27.86
2022-08-20T13:25:46.011Z,27.85
2022-08-20T13:28:14.185Z,27.85
2022-08-20T13:30:42.230Z,27.86
2022-08-20T13:33:10.275Z,27.83
2022-08-20T13:35:38.399Z,27.81
2022-08-20T13:38:06.618Z,27.79
2022-08-20T13:40:35.013Z,27.79
2022-08-20T13:43:06.831Z,27.80
2022-08-20T13:45:37.643Z,27.78
2022-08-20T13:48:06.841Z,27.76
2022-08-20T13:50:47.225Z,27.76
2022-08-20T13:53:16.805Z,27.78
2022-08-20T13:55:45.639Z,27.80
2022-08-20T13:58:14.172Z,27.82
2022-08-20T14:00:42.450Z,27.84
2022-08-20T14:03:11.744Z,27.86
2022-08-20T14:05:40.428Z,27.84
2022-08-20T14:08:15.206Z,27.83
2022-08-20T14:10:44.070Z,27.85
2022-08-20T14:13:15.615Z,27.85
2022-08-20T14:15:45.446Z,27.86
2022-08-20T14:18:14.850Z,27.85
2022-08-20T14:20:45.336Z,27.87
2022-08-20T14:23:15.526Z,27.88
2022-08-20T14:25:49.602Z,27.87
2022-08-20T14:28:23.684Z,27.87
2022-08-20T14:30:52.925Z,27.87
2022-08-20T14:33:23.995Z,27.86
2022-08-20T14:35:53.136Z,27.82
2022-08-20T14:38:21.286Z,27.78
2022-08-20T14:40:50.697Z,27.79
2022-08-20T14:43:19.520Z,27.79
2022-08-20T14:45:47.647Z,27.79
2022-08-20T14:48:15.835Z,27.78
2022-08-20T14:50:43.987Z,27.75
2022-08-20T14:53:12.043Z,27.71
2022-08-20T14:55:40.396Z,27.67
2022-08-20T14:58:10.701Z,27.63
2022-08-20T15:00:39.764Z,27.58
2022-08-20T15:03:08.031Z,27.54
2022-08-20T15:05:39.548Z,27.50
2022-08-20T15:08:10.771Z,27.46
2022-08-20T15:10:39.878Z,27.42
2022-08-20T15:13:12.632Z,27.38
2022-08-20T15:15:40.917Z,27.33
2022-08-20T15:18:13.760Z,27.27
2022-08-20T15:20:41.764Z,27.22
2022-08-20T15:23:09.907Z,27.16
2022-08-20T15:25:38.350Z,27.13
2022-08-20T15:28:10.260Z,27.10
2022-08-20T15:30:42.266Z,27.09
2022-08-20T15:33:11.144Z,27.07
2022-08-20T15:35:39.767Z,27.04
2022-08-20T15:38:07.848Z,27.02
2022-08-20T15:40:36.431Z,27.00
2022-08-20T15:43:05.832Z,26.97
2022-08-20T15:45:35.435Z,26.95
2022-08-20T15:48:03.506Z,26.92
2022-08-20T15:50:44.444Z,26.90
2022-08-20T15:53:20.471Z,26.86
2022-08-20T15:56:08.412Z,26.84
2022-08-20T15:58:52.775Z,26.81
2022-08-20T16:01:53.113Z,26.79
2022-08-20T16:04:30.377Z,26.76
2022-08-20T16:07:03.235Z,26.74
2022-08-20T16:09:49.563Z,26.72
2022-08-20T16:12:38.787Z,26.71
2022-08-20T16:15:19.039Z,26.70
2022-08-20T16:17:52.968Z,26.69
2022-08-20T16:20:35.702Z,26.67
2022-08-20T16:23:04.910Z,26.65
2022-08-20T16:25:59.139Z,26.61
2022-08-20T16:28:32.849Z,26.56
2022-08-20T16:31:14.001Z,26.49
2022-08-20T16:34:03.233Z,26.47
2022-08-20T16:36:47.532Z,26.40
2022-08-20T16:39:42.871Z,26.34
2022-08-20T16:42:11.931Z,26.28
2022-08-20T16:44:45.156Z,26.24
2022-08-20T16:47:34.731Z,26.17
2022-08-20T16:50:25.812Z,26.11
2022-08-20T16:52:54.112Z,26.06
2022-08-20T16:55:25.054Z,26.00
2022-08-20T16:57:53.977Z,25.93
2022-08-20T17:00:44.803Z,25.88
2022-08-20T17:03:21.691Z,25.80
2022-08-20T17:06:01.874Z,25.73
2022-08-20T17:08:34.985Z,25.66
2022-08-20T17:11:06.024Z,25.61
2022-08-20T17:13:37.224Z,25.55
2022-08-20T17:16:20.345Z,25.52
2022-08-20T17:18:52.511Z,25.50
2022-08-20T17:21:35.750Z,25.48
2022-08-20T17:24:09.245Z,25.44
2022-08-20T17:27:10.352Z,25.40
2022-08-20T17:29:50.737Z,25.37
2022-08-20T17:32:23.501Z,25.36
2022-08-20T17:34:55.896Z,25.33
2022-08-20T17:37:41.925Z,25.31
2022-08-20T17:40:30.228Z,25.29
2022-08-20T17:43:04.370Z,25.25
2022-08-20T17:45:41.828Z,25.21
2022-08-20T17:48:16.936Z,25.17
2022-08-20T17:50:45.593Z,25.14
2022-08-20T17:53:24.363Z,25.07
2022-08-20T17:55:56.312Z,25.01
2022-08-20T17:58:54.847Z,24.94
2022-08-20T18:01:26.007Z,24.87
2022-08-20T18:03:54.771Z,24.83
2022-08-20T18:06:34.773Z,24.79
2022-08-20T18:09:08.497Z,24.75
2022-08-20T18:11:39.277Z,24.70
2022-08-20T18:14:28.548Z,24.64
2022-08-20T18:17:16.890Z,24.56
2022-08-20T18:20:23.518Z,24.47
2022-08-20T18:23:01.297Z,24.42
2022-08-20T18:25:39.077Z,24.36
2022-08-20T18:28:15.481Z,24.30
2022-08-20T18:30:54.358Z,24.26
2022-08-20T18:33:31.460Z,24.21
2022-08-20T18:36:18.788Z,24.17
2022-08-20T18:39:23.843Z,24.13
2022-08-20T18:42:02.818Z,24.09
2022-08-20T18:44:46.100Z,24.09
2022-08-20T18:47:34.616Z,24.08
2022-08-20T18:50:21.652Z,24.08
2022-08-20T18:52:53.273Z,24.08
2022-08-20T18:55:37.007Z,24.06
2022-08-20T18:58:08.341Z,24.03
2022-08-20T19:00:46.610Z,24.03
2022-08-20T19:03:22.178Z,24.03
2022-08-20T19:06:13.469Z,24.01
2022-08-20T19:08:45.738Z,24.00
2022-08-20T19:11:28.763Z,23.98
2022-08-20T19:14:18.691Z,23.95
2022-08-20T19:16:53.196Z,23.93
2022-08-20T19:19:23.997Z,23.91
2022-08-20T19:21:52.574Z,23.88
2022-08-20T19:24:27.566Z,23.87
2022-08-20T19:27:02.647Z,23.84
2022-08-20T19:29:57.982Z,23.82
2022-08-20T19:32:31.099Z,23.79
2022-08-20T19:35:02.664Z,23.77
2022-08-20T19:37:50.929Z,23.75
2022-08-20T19:40:28.762Z,23.71
2022-08-20T19:43:00.797Z,23.70
2022-08-20T19:45:49.933Z,23.69
2022-08-20T19:48:31.293Z,23.68
2022-08-20T19:50:59.318Z,23.67
2022-08-20T19:53:31.913Z,23.66
2022-08-20T19:56:03.134Z,23.63
2022-08-20T19:58:32.923Z,23.58
2022-08-20T20:01:02.671Z,23.54
2022-08-20T20:03:34.442Z,23.51
2022-08-20T20:06:20.820Z,23.45
2022-08-20T20:09:02.301Z,23.40
2022-08-20T20:11:35.860Z,23.34
2022-08-20T20:14:12.527Z,23.29
2022-08-20T20:16:41.670Z,23.23
2022-08-20T20:19:28.551Z,23.17
2022-08-20T20:22:24.275Z,23.10
2022-08-20T20:25:18.539Z,23.02
2022-08-20T20:27:56.667Z,22.96
2022-08-20T20:30:33.991Z,22.93
2022-08-20T20:33:13.346Z,22.91
2022-08-20T20:35:41.792Z,22.88
2022-08-20T20:38:28.229Z,22.84
2022-08-20T20:41:01.705Z,22.79
2022-08-20T20:43:37.076Z,22.77
2022-08-20T20:46:23.658Z,22.74
2022-08-20T20:48:57.724Z,22.69
2022-08-20T20:51:30.977Z,22.65
2022-08-20T20:54:03.594Z,22.61
2022-08-20T20:56:42.903Z,22.58
2022-08-20T20:59:11.639Z,22.55
2022-08-20T21:01:48.954Z,22.53
2022-08-20T21:04:23.295Z,22.51
2022-08-20T21:06:55.837Z,22.49
2022-08-20T21:09:26.070Z,22.47
2022-08-20T21:11:57.785Z,22.46
2022-08-20T21:14:26.434Z,22.43
2022-08-20T21:16:58.640Z,22.42
2022-08-20T21:19:27.491Z,22.40
2022-08-20T21:21:56.527Z,22.40
2022-08-20T21:24:24.937Z,22.39
2022-08-20T21:26:54.569Z,22.37
2022-08-20T21:29:32.297Z,22.37
2022-08-20T21:32:00.918Z,22.35
2022-08-20T21:34:29.058Z,22.35
2022-08-20T21:36:58.014Z,22.35
2022-08-20T21:39:27.765Z,22.34
2022-08-20T21:41:58.037Z,22.34
2022-08-20T21:44:29.732Z,22.32
2022-08-20T21:47:00.231Z,22.31
2022-08-20T21:49:29.931Z,22.30
2022-08-20T21:51:58.832Z,22.28
2022-08-20T21:54:27.576Z,22.27
2022-08-20T21:57:04.853Z,22.26
2022-08-20T21:59:35.598Z,22.25
2022-08-20T22:02:04.016Z,22.25
2022-08-20T22:04:35.321Z,22.24
2022-08-20T22:07:05.029Z,22.24
2022-08-20T22:09:34.655Z,22.24
2022-08-20T22:12:04.004Z,22.23
2022-08-20T22:14:32.358Z,22.21
2022-08-20T22:17:00.605Z,22.18
2022-08-20T22:19:28.684Z,22.16
2022-08-20T22:21:57.320Z,22.11
2022-08-20T22:24:28.969Z,22.06
2022-08-20T22:26:57.856Z,22.00
2022-08-20T22:29:26.028Z,21.94
2022-08-20T22:31:54.343Z,21.88
2022-08-20T22:34:22.889Z,21.83
2022-08-20T22:36:54.208Z,21.77
2022-08-20T22:39:22.571Z,21.72
2022-08-20T22:41:50.730Z,21.66
2022-08-20T22:44:19.402Z,21.61
2022-08-20T22:46:51.521Z,21.57
2022-08-20T22:49:27.054Z,21.52
2022-08-20T22:51:56.659Z,21.48
2022-08-20T22:54:25.733Z,21.44
2022-08-20T22:56:55.201Z,21.41
2022-08-20T22:59:24.068Z,21.39
2022-08-20T23:01:53.231Z,21.34
2022-08-20T23:04:24.123Z,21.32
2022-08-20T23:06:53.947Z,21.28
2022-08-20T23:09:22.360Z,21.25
2022-08-20T23:11:50.838Z,21.21
2022-08-20T23:14:19.533Z,21.19
2022-08-20T23:16:51.959Z,21.15
2022-08-20T23:19:22.272Z,21.14
2022-08-20T23:21:51.961Z,21.12
2022-08-20T23:24:20.234Z,21.10
2022-08-20T23:26:52.919Z,21.06
2022-08-20T23:29:25.745Z,21.02
2022-08-20T23:31:58.065Z,20.96
2022-08-20T23:34:27.418Z,20.90
2022-08-20T23:36:56.955Z,20.85
2022-08-20T23:39:25.569Z,20.80
2022-08-20T23:41:53.650Z,20.74
2022-08-20T23:44:26.656Z,20.68
2022-08-20T23:47:02.450Z,20.64
2022-08-20T23:49:31.895Z,20.62
2022-08-20T23:52:00.837Z,20.60
2022-08-20T23:54:31.179Z,20.58
2022-08-20T23:56:59.448Z,20.57
2022-08-20T23:59:27.678Z,20.55
